Time;durP1;ratioP1;P1;durP2;ratioP2;P2;SDS_P1;SDS_P2;PMS_P1;PMS_P2;Temp;Humidity;BMP_temperature;BMP_pressure;BME280_temperature;BME280_humidity;BME280_pressure;Samples;Min_cycle;Max_cycle;Signal;HPM_P1;HPM_P2
2022/04/10 00:01:23;;;;;;;13.03;2.67;;;22.10;99.90;;;;;;5011610;28;20496;-84
2022/04/10 00:03:50;;;;;;;8.07;2.38;;;22.00;99.90;;;;;;5016709;28;20389;-85
2022/04/10 00:06:17;;;;;;;8.43;2.57;;;21.90;99.90;;;;;;5031798;28;20389;-85
2022/04/10 00:08:44;;;;;;;7.85;2.80;;;22.20;99.90;;;;;;5032658;28;20769;-84
2022/04/10 00:11:11;;;;;;;9.70;2.45;;;22.20;99.90;;;;;;5032303;28;20452;-85
2022/04/10 00:13:38;;;;;;;7.13;2.58;;;22.20;99.90;;;;;;5032230;28;21003;-84
2022/04/10 00:16:07;;;;;;;9.27;2.38;;;22.10;99.90;;;;;;5029399;28;21120;-85
2022/04/10 00:18:35;;;;;;;8.55;2.20;;;22.30;99.90;;;;;;5027104;28;20400;-82
2022/04/10 00:21:02;;;;;;;8.13;2.35;;;22.30;99.90;;;;;;5019087;28;20414;-84
2022/04/10 00:23:29;;;;;;;11.73;2.60;;;22.10;99.90;;;;;;5011366;28;20399;-82
2022/04/10 00:25:56;;;;;;;9.02;2.47;;;21.90;99.90;;;;;;5011938;28;20445;-85
2022/04/10 00:28:23;;;;;;;9.25;2.30;;;21.90;99.90;;;;;;5011685;28;20397;-84
2022/04/10 00:30:50;;;;;;;9.40;2.40;;;21.90;99.90;;;;;;5019557;28;20408;-83
2022/04/10 00:33:17;;;;;;;9.32;2.40;;;22.00;99.90;;;;;;5031434;28;20387;-83
2022/04/10 00:35:44;;;;;;;7.32;2.35;;;22.30;99.90;;;;;;5031548;28;20781;-88
2022/04/10 00:38:11;;;;;;;8.77;2.20;;;22.50;99.90;;;;;;5031615;28;20730;-86
2022/04/10 00:40:39;;;;;;;8.32;2.40;;;22.70;99.90;;;;;;5031573;28;20896;-82
2022/04/10 00:43:06;;;;;;;7.65;2.47;;;22.90;99.90;;;;;;5031614;28;20850;-85
2022/04/10 00:45:33;;;;;;;8.38;2.28;;;22.90;99.90;;;;;;5032140;28;20381;-85
2022/04/10 00:47:59;;;;;;;8.85;2.30;;;23.00;99.90;;;;;;5035621;28;20381;-83
2022/04/10 00:50:26;;;;;;;6.10;1.77;;;23.10;99.90;;;;;;5030317;28;20881;-84
2022/04/10 00:52:54;;;;;;;9.57;2.08;;;23.20;99.90;;;;;;5031495;28;20804;-83
2022/04/10 00:55:22;;;;;;;6.40;2.10;;;24.00;99.90;;;;;;5039363;28;20804;-87
2022/04/10 00:57:49;;;;;;;8.48;2.17;;;23.10;99.90;;;;;;5033452;28;20388;-89
2022/04/10 01:00:17;;;;;;;8.52;2.20;;;23.10;99.90;;;;;;5038147;28;20414;-86
2022/04/10 01:02:44;;;;;;;5.90;1.77;;;23.20;99.90;;;;;;5051120;28;20462;-83
2022/04/10 01:05:11;;;;;;;7.78;1.90;;;23.10;99.90;;;;;;5037124;28;20382;-84
2022/04/10 01:07:38;;;;;;;8.93;2.17;;;23.20;99.90;;;;;;5031058;28;20395;-86
2022/04/10 01:10:06;;;;;;;7.00;1.90;;;23.10;99.90;;;;;;5030952;28;20493;-86
2022/04/10 01:12:34;;;;;;;7.57;1.80;;;23.20;99.90;;;;;;5031197;28;20440;-86
2022/04/10 01:15:02;;;;;;;9.18;1.90;;;23.30;99.90;;;;;;5026119;28;20401;-87
2022/04/10 01:17:31;;;;;;;8.02;1.90;;;23.50;99.90;;;;;;5012940;28;20733;-86
2022/04/10 01:19:58;;;;;;;7.53;1.90;;;23.70;99.90;;;;;;5011716;28;20425;-86
2022/04/10 01:22:32;;;;;;;5.22;1.80;;;23.40;99.90;;;;;;5010912;28;20415;-85
2022/04/10 01:25:02;;;;;;;8.30;1.80;;;23.30;99.90;;;;;;5010955;28;20382;-85
2022/04/10 01:27:29;;;;;;;7.07;1.90;;;23.30;99.90;;;;;;5011058;28;20399;-87
2022/04/10 01:29:56;;;;;;;7.93;1.80;;;23.90;99.90;;;;;;5011013;28;20887;-87
2022/04/10 01:32:26;;;;;;;6.93;1.77;;;24.70;99.90;;;;;;5028989;28;20429;-91
2022/04/10 01:34:55;;;;;;;47.53;6.45;;;25.50;99.90;;;;;;5035166;28;20386;-90
2022/04/10 01:37:22;;;;;;;18.23;3.42;;;25.50;99.90;;;;;;5045095;28;20374;-86
2022/04/10 01:39:49;;;;;;;13.02;2.70;;;25.30;99.90;;;;;;5030545;28;20413;-83
2022/04/10 01:42:16;;;;;;;7.05;2.00;;;25.60;99.90;;;;;;5027530;28;20397;-86
2022/04/10 01:44:44;;;;;;;8.00;1.83;;;26.20;99.90;;;;;;5032922;28;20409;-86
2022/04/10 01:47:11;;;;;;;5.37;1.80;;;27.30;99.90;;;;;;5030198;28;20401;-86
2022/04/10 01:49:38;;;;;;;4.10;1.38;;;28.00;97.80;;;;;;5029830;28;20385;-86
2022/04/10 01:52:06;;;;;;;4.67;1.37;;;28.20;92.00;;;;;;5028084;28;20409;-87
2022/04/10 01:54:33;;;;;;;5.93;1.80;;;28.90;90.50;;;;;;5032159;28;20370;-87
2022/04/10 01:57:00;;;;;;;6.70;1.83;;;29.40;90.90;;;;;;5024883;28;20401;-87
2022/04/10 01:59:30;;;;;;;5.15;1.58;;;29.90;86.40;;;;;;5014685;28;20377;-87
2022/04/10 02:01:57;;;;;;;4.93;1.58;;;29.90;81.50;;;;;;5013181;28;20556;-87
2022/04/10 02:04:24;;;;;;;5.13;1.80;;;30.10;77.00;;;;;;5011395;28;20830;-88
2022/04/10 02:06:51;;;;;;;4.32;1.40;;;29.90;77.90;;;;;;5021496;28;20398;-83
2022/04/10 02:09:38;;;;;;;5.97;1.75;;;29.60;79.40;;;;;;5022731;28;20415;-87
2022/04/10 02:12:05;;;;;;;4.63;1.50;;;30.20;81.10;;;;;;4970655;28;20424;-86
2022/04/10 02:14:32;;;;;;;4.05;1.40;;;29.90;78.90;;;;;;4986342;28;20450;-86
2022/04/10 02:16:59;;;;;;;4.57;1.50;;;30.10;77.40;;;;;;4989301;28;20403;-85
2022/04/10 02:19:26;;;;;;;4.85;1.50;;;30.40;76.60;;;;;;4990309;28;20415;-88
2022/04/10 02:21:55;;;;;;;4.28;1.40;;;30.80;74.90;;;;;;4973865;28;20405;-87
2022/04/10 02:24:21;;;;;;;3.88;1.45;;;30.20;74.10;;;;;;4985593;28;20403;-84
2022/04/10 02:26:48;;;;;;;3.72;1.60;;;30.30;75.90;;;;;;4983662;28;20985;-84
2022/04/10 02:29:15;;;;;;;4.78;1.50;;;29.70;75.30;;;;;;4992332;28;20907;-89
2022/04/10 02:31:42;;;;;;;6.63;1.67;;;29.50;76.60;;;;;;4978529;28;20410;-89
2022/04/10 02:34:09;;;;;;;4.75;1.50;;;29.40;77.40;;;;;;4977690;28;20463;-85
2022/04/10 02:36:36;;;;;;;3.47;1.45;;;29.30;78.20;;;;;;4974311;28;20417;-88
2022/04/10 02:39:03;;;;;;;5.80;1.60;;;29.60;75.70;;;;;;4975065;28;20401;-88
2022/04/10 02:41:30;;;;;;;6.93;1.55;;;28.90;78.20;;;;;;4975655;28;20429;-87
2022/04/10 02:43:57;;;;;;;4.43;1.38;;;29.30;74.80;;;;;;4988767;28;20467;-86
2022/04/10 02:46:25;;;;;;;7.05;1.63;;;29.10;78.90;;;;;;4982546;28;20422;-87
2022/04/10 02:48:52;;;;;;;4.68;1.50;;;28.60;79.40;;;;;;5003700;28;20476;-88
2022/04/10 02:51:19;;;;;;;5.80;1.70;;;29.10;81.20;;;;;;5017048;28;20909;-88
2022/04/10 02:53:46;;;;;;;6.32;1.70;;;30.00;75.60;;;;;;5021089;28;21074;-89
2022/04/10 02:56:13;;;;;;;4.32;1.73;;;30.80;74.70;;;;;;5033754;28;20386;-87
2022/04/10 02:58:40;;;;;;;5.85;1.80;;;31.50;70.10;;;;;;5022720;28;20379;-87
2022/04/10 03:01:07;;;;;;;6.47;1.73;;;30.90;72.70;;;;;;5019664;28;20731;-87
2022/04/10 03:03:34;;;;;;;5.03;1.80;;;31.40;71.10;;;;;;5017034;28;20394;-86
2022/04/10 03:06:01;;;;;;;4.82;1.73;;;32.00;69.00;;;;;;5013511;28;20383;-87
2022/04/10 03:08:28;;;;;;;5.18;2.08;;;33.00;66.70;;;;;;5020664;28;20391;-86
2022/04/10 03:10:57;;;;;;;5.75;1.77;;;33.50;61.10;;;;;;5014470;28;20396;-93
2022/04/10 03:13:24;;;;;;;5.13;1.90;;;32.70;62.00;;;;;;5021217;28;20931;-88
2022/04/10 03:15:51;;;;;;;6.40;1.70;;;31.40;66.10;;;;;;5033742;28;20382;-87
2022/04/10 03:18:18;;;;;;;5.38;1.80;;;30.80;69.40;;;;;;5032910;28;20378;-87
2022/04/10 03:20:45;;;;;;;5.47;2.00;;;30.70;70.20;;;;;;5014233;28;20390;-86
2022/04/10 03:23:12;;;;;;;4.10;1.70;;;30.20;72.10;;;;;;5013627;28;20383;-86
2022/04/10 03:25:39;;;;;;;5.80;2.05;;;29.90;70.10;;;;;;5013077;28;20926;-85
2022/04/10 03:28:06;;;;;;;6.00;1.60;;;30.10;70.80;;;;;;5012014;28;20471;-86
2022/04/10 03:30:33;;;;;;;3.90;1.60;;;30.50;71.70;;;;;;5013206;28;20784;-86
2022/04/10 03:33:00;;;;;;;4.63;1.93;;;30.80;71.30;;;;;;5012852;28;20447;-86
2022/04/10 03:35:27;;;;;;;3.03;1.63;;;31.20;69.80;;;;;;5013172;28;20402;-86
2022/04/10 03:37:54;;;;;;;5.70;1.60;;;32.00;66.80;;;;;;5028533;28;20429;-87
2022/04/10 03:40:21;;;;;;;5.35;1.90;;;30.70;66.50;;;;;;5027453;28;20379;-87
2022/04/10 03:42:48;;;;;;;5.38;2.00;;;30.50;67.90;;;;;;5027431;28;20528;-87
2022/04/10 03:45:15;;;;;;;4.57;2.00;;;30.70;70.30;;;;;;5012190;28;20943;-87
2022/04/10 03:47:42;;;;;;;3.88;1.90;;;31.50;67.20;;;;;;5020061;28;20489;-86
2022/04/10 03:50:09;;;;;;;3.92;1.75;;;32.30;65.40;;;;;;5024813;28;20400;-87
2022/04/10 03:52:36;;;;;;;3.97;2.10;;;32.90;63.40;;;;;;5021106;28;20463;-85
2022/04/10 03:55:03;;;;;;;3.87;1.97;;;33.70;61.00;;;;;;5023469;28;20413;-87
2022/04/10 03:57:30;;;;;;;3.80;2.00;;;34.40;59.20;;;;;;5031620;28;20391;-88
2022/04/10 03:59:57;;;;;;;4.50;1.83;;;33.90;56.40;;;;;;5031818;28;20389;-86
2022/04/10 04:02:24;;;;;;;4.88;1.92;;;32.60;61.00;;;;;;5028417;28;20757;-86
2022/04/10 04:04:51;;;;;;;4.47;1.80;;;32.90;61.40;;;;;;5018689;28;20392;-87
2022/04/10 04:07:19;;;;;;;3.10;1.60;;;33.70;58.70;;;;;;5012887;28;20446;-87
2022/04/10 04:09:46;;;;;;;3.72;1.77;;;33.10;56.30;;;;;;5012566;28;20422;-87
2022/04/10 04:12:13;;;;;;;3.80;1.80;;;32.50;59.50;;;;;;5023324;28;20411;-87
2022/04/10 04:14:41;;;;;;;3.95;1.90;;;32.80;59.00;;;;;;5018069;28;20388;-85
2022/04/10 04:17:08;;;;;;;4.43;1.73;;;33.20;58.40;;;;;;5017045;28;20431;-88
2022/04/10 04:19:35;;;;;;;3.88;1.80;;;33.40;58.10;;;;;;5034673;28;20383;-82
2022/04/10 04:22:03;;;;;;;2.85;1.60;;;34.10;58.10;;;;;;5028787;28;20469;-87
2022/04/10 04:24:30;;;;;;;3.05;1.70;;;34.30;55.10;;;;;;5030954;28;20382;-84
2022/04/10 04:26:57;;;;;;;3.10;1.10;;;33.70;56.10;;;;;;5012755;28;20403;-87
2022/04/10 04:29:23;;;;;;;3.30;1.30;;;33.70;54.60;;;;;;5030669;28;20385;-86
2022/04/10 04:31:50;;;;;;;2.58;1.40;;;33.70;54.20;;;;;;5032881;28;20472;-88
2022/04/10 04:34:17;;;;;;;3.38;1.60;;;33.40;55.00;;;;;;5023149;28;20902;-88
2022/04/10 04:36:44;;;;;;;2.42;1.20;;;33.70;56.20;;;;;;5032762;28;20405;-86
2022/04/10 04:39:11;;;;;;;3.88;1.40;;;34.50;54.80;;;;;;5023821;28;20387;-85
2022/04/10 04:41:38;;;;;;;3.38;1.60;;;35.40;52.90;;;;;;5022970;28;20420;-87
2022/04/10 04:44:06;;;;;;;4.10;2.28;;;35.40;52.90;;;;;;5018887;28;20439;-89
2022/04/10 04:46:33;;;;;;;2.58;1.70;;;35.70;51.60;;;;;;5020903;28;20407;-84
2022/04/10 04:49:00;;;;;;;3.20;1.52;;;35.70;51.00;;;;;;5014066;28;20482;-87
2022/04/10 04:51:27;;;;;;;3.03;1.70;;;35.60;51.40;;;;;;5029390;28;20394;-87
2022/04/10 04:53:55;;;;;;;2.00;1.17;;;35.40;52.20;;;;;;5019787;28;20412;-88
2022/04/10 04:56:22;;;;;;;2.53;1.10;;;35.00;52.10;;;;;;5018575;28;20395;-89
2022/04/10 04:58:50;;;;;;;3.80;1.27;;;35.00;51.00;;;;;;5025690;28;20386;-90
2022/04/10 05:01:17;;;;;;;3.03;1.50;;;34.90;49.00;;;;;;5021727;28;20430;-86
2022/04/10 05:03:44;;;;;;;2.30;1.10;;;35.10;49.50;;;;;;5013134;28;20391;-87
2022/04/10 05:06:11;;;;;;;3.33;1.80;;;35.30;48.40;;;;;;5011286;28;20909;-86
2022/04/10 05:08:41;;;;;;;3.65;1.60;;;35.50;50.20;;;;;;5011597;28;20386;-85
2022/04/10 05:11:10;;;;;;;3.50;1.35;;;36.00;49.50;;;;;;5012770;28;20406;-85
2022/04/10 05:13:37;;;;;;;2.88;1.38;;;36.30;48.70;;;;;;5030090;28;20454;-89
2022/04/10 05:16:05;;;;;;;2.33;1.20;;;36.50;48.00;;;;;;5025704;28;20390;-87
2022/04/10 05:18:32;;;;;;;1.48;1.00;;;36.20;47.20;;;;;;5023182;28;20390;-90
2022/04/10 05:20:59;;;;;;;1.13;0.90;;;35.40;48.00;;;;;;5012209;28;20391;-89
2022/04/10 05:23:30;;;;;;;3.70;1.10;;;35.20;48.70;;;;;;5026092;28;20875;-88
2022/04/10 05:25:57;;;;;;;3.58;1.60;;;34.50;51.20;;;;;;5021670;28;20387;-88
2022/04/10 05:28:24;;;;;;;4.35;1.90;;;33.10;55.70;;;;;;5029054;28;20447;-84
2022/04/10 05:30:51;;;;;;;6.13;2.37;;;32.80;59.70;;;;;;5030751;28;20382;-86
2022/04/10 05:33:18;;;;;;;6.05;2.33;;;33.30;58.60;;;;;;5022237;28;20397;-84
2022/04/10 05:35:47;;;;;;;6.25;2.25;;;33.60;58.40;;;;;;5027182;28;20392;-85
2022/04/10 05:38:14;;;;;;;5.82;2.00;;;33.10;59.60;;;;;;5015071;28;20391;-86
2022/04/10 05:40:41;;;;;;;5.07;2.00;;;33.70;58.70;;;;;;5011892;28;20394;-86
2022/04/10 05:43:08;;;;;;;4.35;2.00;;;34.20;57.90;;;;;;5012079;28;20399;-92
2022/04/10 05:45:35;;;;;;;2.50;1.90;;;34.20;55.70;;;;;;5018562;28;20476;-82
2022/04/10 05:48:02;;;;;;;4.10;1.98;;;34.30;56.00;;;;;;5016398;28;20399;-85
2022/04/10 05:50:29;;;;;;;4.95;1.98;;;33.40;57.00;;;;;;5010171;28;20882;-90
2022/04/10 05:52:56;;;;;;;4.43;1.80;;;33.20;58.30;;;;;;5011794;28;20399;-85
2022/04/10 05:55:24;;;;;;;3.40;1.75;;;33.40;59.30;;;;;;5024165;28;20470;-85
2022/04/10 05:57:51;;;;;;;4.90;1.83;;;34.00;57.90;;;;;;5017020;28;20398;-87
2022/04/10 06:00:20;;;;;;;3.75;1.65;;;34.00;57.50;;;;;;5014886;28;20387;-88
2022/04/10 06:02:47;;;;;;;3.58;1.80;;;34.20;56.90;;;;;;5020497;28;20427;-87
2022/04/10 06:05:14;;;;;;;3.75;1.80;;;33.80;57.70;;;;;;5011652;28;20416;-87
2022/04/10 06:07:42;;;;;;;4.97;1.73;;;33.50;57.40;;;;;;5017134;28;20416;-85
2022/04/10 06:10:09;;;;;;;4.70;1.90;;;32.80;58.80;;;;;;5029048;28;20378;-87
2022/04/10 06:12:36;;;;;;;3.75;1.90;;;31.70;60.50;;;;;;5030126;28;20452;-87
2022/04/10 06:15:04;;;;;;;3.88;1.75;;;30.60;63.60;;;;;;5030344;28;20906;-86
2022/04/10 06:17:31;;;;;;;5.45;2.08;;;29.90;66.10;;;;;;5028738;28;20400;-84
2022/04/10 06:19:58;;;;;;;4.38;1.85;;;29.30;68.60;;;;;;5031352;28;20877;-85
2022/04/10 06:22:26;;;;;;;7.20;2.08;;;28.50;72.50;;;;;;5030919;28;20464;-85
2022/04/10 06:24:54;;;;;;;4.87;2.07;;;27.80;77.20;;;;;;5030178;28;20381;-85
2022/04/10 06:27:21;;;;;;;5.63;2.03;;;27.30;80.90;;;;;;5028274;28;20484;-86
2022/04/10 06:29:48;;;;;;;4.57;2.10;;;26.80;85.40;;;;;;5015388;28;20879;-84
2022/04/10 06:32:15;;;;;;;7.15;2.10;;;26.50;90.50;;;;;;5010392;28;20455;-85
2022/04/10 06:34:45;;;;;;;6.75;2.00;;;26.00;93.90;;;;;;5010671;28;20379;-86
2022/04/10 06:37:12;;;;;;;6.53;2.22;;;25.70;96.80;;;;;;5026291;28;20394;-90
2022/04/10 06:39:39;;;;;;;6.35;2.25;;;25.60;97.90;;;;;;5017043;28;20987;-87
2022/04/10 06:42:08;;;;;;;5.70;2.22;;;25.60;98.20;;;;;;5028913;28;20496;-86
2022/04/10 06:44:37;;;;;;;4.93;2.20;;;25.60;98.70;;;;;;5037560;28;20390;-82
2022/04/10 06:47:04;;;;;;;7.28;2.33;;;25.50;99.30;;;;;;5036700;28;20401;-89
2022/04/10 06:49:31;;;;;;;6.00;2.30;;;25.50;99.70;;;;;;5030993;28;20373;-86
2022/04/10 06:52:00;;;;;;;8.88;2.30;;;25.40;99.90;;;;;;5023071;28;20389;-86
2022/04/10 06:54:27;;;;;;;6.45;2.30;;;25.40;99.90;;;;;;5029858;28;20385;-88
2022/04/10 06:56:54;;;;;;;6.47;2.10;;;25.50;99.90;;;;;;5020012;28;20469;-87
2022/04/10 06:59:21;;;;;;;6.47;2.17;;;25.40;99.90;;;;;;5010438;28;20467;-94
2022/04/10 07:01:48;;;;;;;5.28;2.00;;;25.40;99.90;;;;;;5012037;28;20414;-85
2022/04/10 07:04:15;;;;;;;5.35;2.17;;;25.40;99.90;;;;;;5013473;28;20464;-83
2022/04/10 07:06:46;;;;;;;6.07;2.17;;;25.40;99.90;;;;;;5021685;28;20903;-84
2022/04/10 07:09:14;;;;;;;4.97;2.22;;;25.30;99.90;;;;;;5018317;28;20403;-84
2022/04/10 07:11:42;;;;;;;4.93;2.20;;;25.20;99.90;;;;;;5013297;28;20751;-85
2022/04/10 07:14:11;;;;;;;6.90;2.42;;;25.20;99.90;;;;;;5016207;28;20406;-84
2022/04/10 07:16:38;;;;;;;7.55;2.50;;;25.10;99.90;;;;;;5033289;28;20382;-84
2022/04/10 07:19:06;;;;;;;4.95;2.10;;;25.00;99.90;;;;;;5031982;28;20388;-84
2022/04/10 07:24:17;;;;;;;6.63;2.25;;;24.50;99.90;;;;;;5013207;28;20371;-83
2022/04/10 07:26:44;;;;;;;5.00;2.30;;;24.40;99.90;;;;;;5025468;28;20386;-84
2022/04/10 07:29:12;;;;;;;6.05;2.40;;;24.40;99.90;;;;;;5032413;28;20377;-83
2022/04/10 07:31:40;;;;;;;5.87;2.40;;;24.20;99.90;;;;;;5028766;28;20390;-84
2022/04/10 07:34:10;;;;;;;6.45;2.55;;;24.00;99.90;;;;;;5021483;28;20510;-84
2022/04/10 07:36:38;;;;;;;7.78;2.50;;;23.80;99.90;;;;;;5018396;28;20497;-84
2022/04/10 07:39:05;;;;;;;5.35;2.47;;;23.50;99.90;;;;;;5027769;28;20759;-87
2022/04/10 07:41:32;;;;;;;6.43;2.33;;;23.40;99.90;;;;;;5021915;28;20394;-82
2022/04/10 07:43:58;;;;;;;7.47;2.10;;;23.20;99.90;;;;;;5032569;28;20385;-83
2022/04/10 07:49:11;;;;;;;7.18;2.60;;;22.90;99.90;;;;;;5030941;28;20906;-84
2022/04/10 07:51:38;;;;;;;7.35;2.40;;;22.80;99.90;;;;;;5021407;28;20853;-83
2022/04/10 07:54:05;;;;;;;6.70;2.60;;;22.80;99.90;;;;;;5029282;28;20885;-83
2022/04/10 07:56:32;;;;;;;8.65;2.53;;;22.70;99.90;;;;;;5016465;28;20927;-86
2022/04/10 07:58:59;;;;;;;7.20;2.57;;;22.60;99.90;;;;;;5029595;28;20724;-84
2022/04/10 08:01:25;;;;;;;6.78;2.88;;;22.50;99.90;;;;;;5025753;28;20401;-81
2022/04/10 08:03:53;;;;;;;9.40;3.22;;;22.50;99.90;;;;;;5030852;28;20388;-82
2022/04/10 08:06:20;;;;;;;10.67;4.43;;;22.40;99.90;;;;;;5032353;28;20428;-82
2022/04/10 08:08:47;;;;;;;16.20;10.40;;;22.30;99.90;;;;;;5012785;28;20383;-82
2022/04/10 08:11:14;;;;;;;30.40;23.77;;;22.20;99.90;;;;;;5026317;28;20390;-84
2022/04/10 08:13:41;;;;;;;20.55;15.32;;;22.10;99.90;;;;;;5027803;28;20394;-83
2022/04/10 08:16:08;;;;;;;14.85;9.68;;;22.10;99.90;;;;;;5044325;28;20388;-84
2022/04/10 08:18:35;;;;;;;16.00;7.70;;;21.90;99.90;;;;;;5026913;28;20871;-82
2022/04/10 08:21:05;;;;;;;10.98;5.05;;;21.80;99.90;;;;;;5028223;28;20441;-83
2022/04/10 08:23:32;;;;;;;11.30;4.32;;;21.80;99.90;;;;;;5051163;28;20394;-81
2022/04/10 08:25:59;;;;;;;15.57;4.20;;;21.70;99.90;;;;;;5031845;28;20885;-81
2022/04/10 08:28:27;;;;;;;8.60;3.80;;;21.70;99.90;;;;;;5019461;28;20383;-83
2022/04/10 08:30:54;;;;;;;10.63;3.80;;;21.60;99.90;;;;;;5016114;28;20460;-83
2022/04/10 08:33:23;;;;;;;9.02;3.70;;;21.50;99.90;;;;;;5022630;28;20506;-84
2022/04/10 08:35:50;;;;;;;8.93;3.50;;;21.50;99.90;;;;;;5012031;28;20445;-83
2022/04/10 08:38:17;;;;;;;10.80;3.05;;;21.40;99.90;;;;;;5027666;28;20873;-82
2022/04/10 08:40:46;;;;;;;6.90;2.88;;;21.30;99.90;;;;;;5031852;28;20381;-79
2022/04/10 08:43:13;;;;;;;10.48;2.80;;;21.30;99.90;;;;;;5015741;28;21077;-81
2022/04/10 08:45:40;;;;;;;11.77;2.88;;;21.20;99.90;;;;;;5011443;28;20383;-86
2022/04/10 08:48:07;;;;;;;8.60;2.42;;;21.10;99.90;;;;;;5013687;28;20926;-80
2022/04/10 08:50:36;;;;;;;10.55;2.90;;;21.10;99.90;;;;;;5011880;28;20514;-81
2022/04/10 08:53:04;;;;;;;9.38;2.65;;;22.40;99.90;;;;;;5024929;28;20896;-80
2022/04/10 08:55:31;;;;;;;9.83;2.80;;;21.00;99.90;;;;;;5022812;28;20389;-82
2022/04/10 08:57:58;;;;;;;10.05;2.78;;;21.00;99.90;;;;;;5016406;28;20430;-81
2022/04/10 09:00:25;;;;;;;10.90;2.78;;;20.90;99.90;;;;;;5024121;28;20813;-82
2022/04/10 09:02:53;;;;;;;10.68;2.60;;;20.90;99.90;;;;;;5021425;28;20505;-83
2022/04/10 09:05:22;;;;;;;9.18;2.53;;;20.80;99.90;;;;;;5016702;28;20391;-83
2022/04/10 09:08:14;;;;;;;11.37;2.77;;;20.80;99.90;;;;;;5016517;28;20403;-83
2022/04/10 09:11:00;;;;;;;7.97;2.10;;;20.70;99.90;;;;;;5029562;28;20373;-84
2022/04/10 09:13:29;;;;;;;8.68;2.42;;;20.70;99.90;;;;;;5023065;28;20736;-82
2022/04/10 09:16:22;;;;;;;9.20;2.35;;;20.60;99.90;;;;;;5027519;28;20374;-83
2022/04/10 09:18:55;;;;;;;7.95;2.40;;;20.60;99.90;;;;;;4997392;28;20399;-88
2022/04/10 09:21:28;;;;;;;9.32;2.70;;;20.60;99.90;;;;;;5030124;28;21278;-85
2022/04/10 09:24:12;;;;;;;10.63;2.78;;;20.50;99.90;;;;;;5014987;28;20414;-83
2022/04/10 09:26:50;;;;;;;8.75;2.83;;;20.50;99.90;;;;;;5020994;28;20381;-84
2022/04/10 09:29:22;;;;;;;13.57;2.87;;;20.50;99.90;;;;;;5011914;28;20855;-84
2022/04/10 09:31:52;;;;;;;11.93;3.15;;;20.40;99.90;;;;;;5017866;28;20373;-84
2022/04/10 09:34:25;;;;;;;9.77;2.50;;;20.40;99.90;;;;;;5025956;28;20387;-81
2022/04/10 09:37:04;;;;;;;8.97;2.50;;;20.40;99.90;;;;;;5010837;28;20398;-85
2022/04/10 09:39:33;;;;;;;9.70;2.60;;;20.30;99.90;;;;;;5011186;28;20478;-84
2022/04/10 09:42:18;;;;;;;10.73;2.65;;;20.30;99.90;;;;;;5011146;28;21282;-84
2022/04/10 09:44:45;;;;;;;8.18;2.30;;;20.20;99.90;;;;;;5010928;28;20363;-84
2022/04/10 09:47:12;;;;;;;10.68;2.50;;;20.20;99.90;;;;;;5018020;28;20893;-84
2022/04/10 09:49:43;;;;;;;10.90;2.30;;;20.10;99.90;;;;;;5028636;28;20858;-84
2022/04/10 09:52:17;;;;;;;10.52;2.40;;;20.10;99.90;;;;;;5028881;28;20389;-84
2022/04/10 09:54:48;;;;;;;9.02;2.35;;;20.10;99.90;;;;;;5030639;28;20715;-84
2022/04/10 09:57:20;;;;;;;10.13;2.50;;;20.00;99.90;;;;;;5030449;28;20377;-83
2022/04/10 09:59:49;;;;;;;8.73;2.30;;;20.00;99.90;;;;;;5030506;28;20853;-84
2022/04/10 10:02:18;;;;;;;13.05;2.40;;;20.00;99.90;;;;;;5030463;28;20492;-84
2022/04/10 10:04:47;;;;;;;8.52;2.03;;;19.90;99.90;;;;;;5029700;28;20882;-84
2022/04/10 10:07:15;;;;;;;9.00;2.28;;;19.90;99.90;;;;;;5030296;28;20416;-84
2022/04/10 10:09:43;;;;;;;10.57;2.20;;;19.90;99.90;;;;;;5026558;28;20775;-85
2022/04/10 10:12:10;;;;;;;11.05;2.30;;;19.90;99.90;;;;;;5027735;28;20393;-84
2022/04/10 10:14:41;;;;;;;9.67;2.23;;;19.90;99.90;;;;;;5013315;28;20469;-83
2022/04/10 10:17:10;;;;;;;9.60;2.30;;;19.90;99.90;;;;;;5020445;28;20464;-84
2022/04/10 10:19:41;;;;;;;7.97;2.40;;;19.90;99.90;;;;;;5029351;28;20385;-85
2022/04/10 10:22:12;;;;;;;9.48;2.50;;;19.90;99.90;;;;;;5011509;28;20493;-85
2022/04/10 10:25:08;;;;;;;10.15;2.50;;;19.90;99.90;;;;;;5013946;28;21150;-84
2022/04/10 10:27:53;;;;;;;9.52;2.42;;;19.80;99.90;;;;;;5011543;28;20410;-84
2022/04/10 10:30:26;;;;;;;7.40;2.17;;;19.70;99.90;;;;;;5028086;28;20979;-84
2022/04/10 10:32:58;;;;;;;8.38;2.38;;;19.70;99.90;;;;;;5029097;28;20804;-84
2022/04/10 10:35:41;;;;;;;5.30;1.95;;;19.60;99.90;;;;;;5028683;28;20742;-84
2022/04/10 10:38:21;;;;;;;11.23;2.50;;;19.60;99.90;;;;;;5033905;28;20834;-85
2022/04/10 10:40:49;;;;;;;11.70;2.47;;;19.60;99.90;;;;;;5033744;28;20507;-85
2022/04/10 10:43:22;;;;;;;8.95;2.45;;;19.50;99.90;;;;;;5031926;28;20409;-85
2022/04/10 10:45:53;;;;;;;11.80;2.42;;;19.50;99.90;;;;;;5023373;28;20792;-85
2022/04/10 10:48:37;;;;;;;9.47;2.50;;;19.40;99.90;;;;;;5023381;28;20416;-84
2022/04/10 10:51:24;;;;;;;7.60;2.28;;;19.40;99.90;;;;;;5019703;28;20767;-85
2022/04/10 10:53:56;;;;;;;9.13;2.42;;;19.30;99.90;;;;;;5017744;28;20720;-84
2022/04/10 10:56:31;;;;;;;8.75;2.60;;;19.20;99.90;;;;;;5013704;28;20422;-84
2022/04/10 10:59:24;;;;;;;11.73;2.55;;;19.20;99.90;;;;;;5012365;28;20394;-85
2022/04/10 11:02:10;;;;;;;8.50;3.05;;;19.20;99.90;;;;;;5030224;28;20436;-83
2022/04/10 11:04:46;;;;;;;11.60;3.22;;;19.10;99.90;;;;;;5018764;28;20385;-84
2022/04/10 11:07:20;;;;;;;10.23;3.40;;;19.10;99.90;;;;;;5033779;28;20378;-84
2022/04/10 11:10:00;;;;;;;13.10;4.00;;;19.10;99.90;;;;;;5033627;28;20369;-85
2022/04/10 11:12:40;;;;;;;12.02;3.90;;;19.00;99.90;;;;;;5020267;28;20388;-84
2022/04/10 11:15:21;;;;;;;9.80;3.60;;;19.00;99.90;;;;;;5016640;28;20379;-85
2022/04/10 11:17:49;;;;;;;11.30;3.95;;;19.00;99.90;;;;;;5020941;28;20397;-84
2022/04/10 11:20:18;;;;;;;10.70;3.85;;;19.00;99.90;;;;;;5017595;28;20890;-85
2022/04/10 11:22:54;;;;;;;9.63;3.78;;;18.90;99.90;;;;;;5016119;28;20844;-85
2022/04/10 11:25:48;;;;;;;12.18;3.67;;;18.90;99.90;;;;;;5025992;28;20383;-85
2022/04/10 11:28:15;;;;;;;10.60;3.43;;;18.80;99.90;;;;;;5015561;28;20434;-84
2022/04/10 11:30:48;;;;;;;11.13;3.35;;;18.80;99.90;;;;;;5023029;28;20413;-83
2022/04/10 11:33:16;;;;;;;11.95;3.40;;;18.80;99.90;;;;;;5013390;28;20790;-85
2022/04/10 11:35:57;;;;;;;10.65;3.33;;;18.70;99.90;;;;;;5014346;28;20379;-93
2022/04/10 11:38:24;;;;;;;11.60;3.40;;;18.70;99.90;;;;;;5019215;28;20395;-85
2022/04/10 11:40:52;;;;;;;11.88;3.47;;;18.70;99.90;;;;;;5027361;28;20449;-84
2022/04/10 11:43:21;;;;;;;11.60;3.47;;;18.70;99.90;;;;;;5032584;28;20469;-84
2022/04/10 11:45:50;;;;;;;10.02;3.45;;;18.60;99.90;;;;;;5032095;28;20402;-83
2022/04/10 11:48:17;;;;;;;12.30;4.65;;;18.60;99.90;;;;;;5031684;28;20421;-84
2022/04/10 11:50:44;;;;;;;11.05;4.30;;;18.60;99.90;;;;;;5032655;28;20385;-84
2022/04/10 11:53:15;;;;;;;12.98;4.05;;;18.60;99.90;;;;;;5032465;28;20810;-82
2022/04/10 11:55:42;;;;;;;11.17;4.10;;;18.60;99.90;;;;;;5020877;28;20391;-82
2022/04/10 11:58:21;;;;;;;13.52;4.50;;;18.60;99.90;;;;;;5012783;28;20376;-82
2022/04/10 12:00:52;;;;;;;13.15;4.32;;;18.50;99.90;;;;;;5013566;28;20378;-82
2022/04/10 12:03:26;;;;;;;11.20;3.70;;;18.50;99.90;;;;;;5012431;28;20771;-83
2022/04/10 12:05:54;;;;;;;11.50;3.50;;;18.50;99.90;;;;;;5013213;28;20384;-83
2022/04/10 12:08:22;;;;;;;14.32;3.90;;;18.50;99.90;;;;;;5016901;28;20482;-83
2022/04/10 12:10:54;;;;;;;10.38;3.75;;;18.40;99.90;;;;;;5012493;28;20466;-83
2022/04/10 12:13:27;;;;;;;11.10;3.90;;;18.40;99.90;;;;;;5023980;28;20394;-83
2022/04/10 12:16:16;;;;;;;8.83;3.40;;;18.40;99.90;;;;;;5013912;28;21067;-83
2022/04/10 12:18:51;;;;;;;9.90;3.47;;;18.40;99.90;;;;;;5012272;28;20410;-83
2022/04/10 12:21:19;;;;;;;10.02;3.58;;;18.30;99.90;;;;;;5012472;28;20410;-83
2022/04/10 12:23:46;;;;;;;13.25;3.92;;;18.30;99.90;;;;;;5012288;28;20425;-83
2022/04/10 12:26:14;;;;;;;17.85;4.25;;;18.30;99.90;;;;;;5012228;28;20396;-83
2022/04/10 12:28:45;;;;;;;8.87;3.67;;;18.30;99.90;;;;;;5012208;28;20915;-83
2022/04/10 12:31:12;;;;;;;10.05;3.60;;;18.30;99.90;;;;;;5026604;28;20878;-82
2022/04/10 12:33:40;;;;;;;9.90;3.80;;;18.20;99.90;;;;;;5040428;28;20380;-83
2022/04/10 12:36:21;;;;;;;11.65;4.28;;;18.20;99.90;;;;;;5051640;28;20375;-84
2022/04/10 12:38:55;;;;;;;9.45;4.10;;;18.20;99.90;;;;;;5051173;28;20380;-83
2022/04/10 12:41:30;;;;;;;12.13;4.18;;;18.20;99.90;;;;;;5051619;28;20887;-83
2022/04/10 12:44:05;;;;;;;10.57;3.73;;;18.10;99.90;;;;;;5033557;28;20457;-82
2022/04/10 12:46:36;;;;;;;10.85;3.83;;;18.10;99.90;;;;;;5026761;28;20414;-83
2022/04/10 12:49:14;;;;;;;11.75;4.18;;;18.10;99.90;;;;;;5019676;28;20381;-84
2022/04/10 12:51:53;;;;;;;12.47;3.87;;;18.10;99.90;;;;;;5016862;28;20422;-83
2022/04/10 12:54:33;;;;;;;9.10;3.78;;;18.10;99.90;;;;;;5012240;28;20445;-84
2022/04/10 12:57:00;;;;;;;12.10;3.60;;;18.10;99.90;;;;;;5011920;28;20458;-84
2022/04/10 12:59:48;;;;;;;11.77;3.83;;;18.00;99.90;;;;;;5011566;28;20800;-84